Time;durP1;ratioP1;P1;durP2;ratioP2;P2;SDS_P1;SDS_P2;PMS_P1;PMS_P2;Temp;Humidity;BMP_temperature;BMP_pressure;BME280_temperature;BME280_humidity;BME280_pressure;Samples;Min_cycle;Max_cycle;Signal;HPM_P1;HPM_P2
2021/12/21 00:01:05;;;;;;;8.50;6.05;;;;;;;;;;5012860;28;20092;-90
2021/12/21 00:03:30;;;;;;;11.52;6.07;;;;;;;;;;4995225;28;20042;-89
2021/12/21 00:05:55;;;;;;;9.10;6.40;;;;;;;;;;4995403;28;20669;-89
2021/12/21 00:08:21;;;;;;;13.90;7.03;;;;;;;;;;5012980;28;20387;-89
2021/12/21 00:10:47;;;;;;;14.10;7.05;;;;;;;;;;5013255;28;20025;-90
2021/12/21 00:16:05;;;;;;;15.55;7.18;;;;;;;;;;5013842;28;20613;-89
2021/12/21 00:23:39;;;;;;;14.43;6.65;;;;;;;;;;5015801;28;20026;-89
2021/12/21 00:26:09;;;;;;;13.38;6.53;;;;;;;;;;5015359;28;20429;-89
2021/12/21 00:31:09;;;;;;;14.65;7.20;;;;;;;;;;5015872;28;20026;-89
2021/12/21 00:33:34;;;;;;;15.88;7.18;;;;;;;;;;4997531;28;20072;-89
2021/12/21 00:36:00;;;;;;;12.85;6.68;;;;;;;;;;5015360;28;20014;-89
2021/12/21 00:38:25;;;;;;;14.95;6.63;;;;;;;;;;4997483;28;20054;-89
2021/12/21 00:40:50;;;;;;;14.45;6.95;;;;;;;;;;4997750;28;20018;-89
2021/12/21 00:43:16;;;;;;;12.73;6.03;;;;;;;;;;5015044;28;20041;-89
2021/12/21 00:45:41;;;;;;;11.50;6.07;;;;;;;;;;5015291;28;20018;-89
2021/12/21 00:48:06;;;;;;;13.38;6.72;;;;;;;;;;4997430;28;20021;-89
2021/12/21 00:50:31;;;;;;;14.82;7.28;;;;;;;;;;4997417;28;20432;-89
2021/12/21 00:52:57;;;;;;;18.98;6.90;;;;;;;;;;5015176;28;20021;-89
2021/12/21 00:55:22;;;;;;;16.42;6.38;;;;;;;;;;5015050;28;20018;-89
2021/12/21 00:57:48;;;;;;;12.70;7.00;;;;;;;;;;5014949;28;20014;-89
2021/12/21 01:00:14;;;;;;;10.35;6.97;;;;;;;;;;5014858;28;20508;-90
2021/12/21 01:02:41;;;;;;;11.77;5.63;;;;;;;;;;5014957;28;20029;-89
2021/12/21 01:05:13;;;;;;;13.75;5.90;;;;;;;;;;4996990;28;20021;-89
2021/12/21 01:07:42;;;;;;;13.90;6.97;;;;;;;;;;5014857;28;20022;-89
2021/12/21 01:15:47;;;;;;;19.52;7.22;;;;;;;;;;5015019;28;20029;-89
2021/12/21 01:18:18;;;;;;;14.95;6.80;;;;;;;;;;4997029;28;20057;-89
2021/12/21 01:21:03;;;;;;;11.93;5.88;;;;;;;;;;4996921;28;20505;-89
2021/12/21 01:26:22;;;;;;;15.23;6.68;;;;;;;;;;5014464;28;20026;-90
2021/12/21 01:31:44;;;;;;;11.60;5.57;;;;;;;;;;5014513;28;20080;-89
2021/12/21 01:36:47;;;;;;;11.80;6.40;;;;;;;;;;5012923;28;20113;-89
2021/12/21 01:39:48;;;;;;;15.52;7.38;;;;;;;;;;4993455;28;20018;-89
2021/12/21 01:42:09;;;;;;;9.25;6.15;;;;;;;;;;5011960;28;20033;-89
2021/12/21 01:49:58;;;;;;;11.35;6.43;;;;;;;;;;5011092;28;20041;-89
2021/12/21 01:52:25;;;;;;;8.77;5.82;;;;;;;;;;4993565;28;20553;-90
2021/12/21 01:54:51;;;;;;;11.07;6.47;;;;;;;;;;4993001;28;20025;-89
2021/12/21 01:57:16;;;;;;;8.93;5.85;;;;;;;;;;4993454;28;20033;-89
2021/12/21 01:59:43;;;;;;;11.55;6.30;;;;;;;;;;4993169;28;20042;-89
2021/12/21 02:02:09;;;;;;;10.48;6.05;;;;;;;;;;4993098;28;20048;-89
2021/12/21 02:04:37;;;;;;;9.65;6.05;;;;;;;;;;5010961;28;20037;-89
2021/12/21 02:07:03;;;;;;;11.13;6.32;;;;;;;;;;4993789;28;20082;-89
2021/12/21 02:09:30;;;;;;;11.32;6.30;;;;;;;;;;5011254;28;20132;-89
2021/12/21 02:11:55;;;;;;;9.55;6.22;;;;;;;;;;5013341;28;20377;-89
2021/12/21 02:14:21;;;;;;;9.67;6.40;;;;;;;;;;4996058;28;20108;-89
2021/12/21 02:19:27;;;;;;;11.00;6.10;;;;;;;;;;5020667;28;20030;-90
2021/12/21 02:21:55;;;;;;;9.57;6.32;;;;;;;;;;5020267;28;20474;-89
2021/12/21 02:24:27;;;;;;;10.98;5.90;;;;;;;;;;5020207;28;20018;-89
2021/12/21 02:29:37;;;;;;;8.23;6.15;;;;;;;;;;5009235;28;20033;-89
2021/12/21 02:32:04;;;;;;;8.70;5.68;;;;;;;;;;5020230;28;20378;-89
2021/12/21 02:34:29;;;;;;;10.35;6.13;;;;;;;;;;5020116;28;20105;-89
2021/12/21 02:36:55;;;;;;;9.98;5.28;;;;;;;;;;5002495;28;20827;-89
2021/12/21 02:39:21;;;;;;;11.90;6.72;;;;;;;;;;5002548;28;20014;-89
2021/12/21 02:41:47;;;;;;;13.18;6.47;;;;;;;;;;5020038;28;20823;-89
2021/12/21 02:44:13;;;;;;;16.25;7.72;;;;;;;;;;5019980;28;20022;-89
2021/12/21 02:46:39;;;;;;;14.80;5.68;;;;;;;;;;5020010;28;20063;-89
2021/12/21 02:49:05;;;;;;;15.18;7.35;;;;;;;;;;5019811;28;20037;-89
2021/12/21 02:51:30;;;;;;;10.13;5.93;;;;;;;;;;5019858;28;20018;-89
2021/12/21 02:53:56;;;;;;;11.95;5.88;;;;;;;;;;5002346;28;20390;-89
2021/12/21 02:56:21;;;;;;;12.10;6.03;;;;;;;;;;5020228;28;20018;-89
2021/12/21 02:58:46;;;;;;;10.77;7.18;;;;;;;;;;5002210;28;20021;-89
2021/12/21 03:01:12;;;;;;;11.20;7.60;;;;;;;;;;5019931;28;20576;-89
2021/12/21 03:03:38;;;;;;;9.95;6.32;;;;;;;;;;5002321;28;20113;-89
2021/12/21 03:06:08;;;;;;;9.70;5.60;;;;;;;;;;5019897;28;20006;-89
2021/12/21 03:08:40;;;;;;;7.65;5.60;;;;;;;;;;5019991;28;20018;-89
2021/12/21 03:11:16;;;;;;;;;;;;;;;;;;5020667;28;20010;-89
2021/12/21 03:14:03;;;;;;;11.85;6.50;;;;;;;;;;5002151;28;19909;-89
2021/12/21 03:16:29;;;;;;;12.68;7.28;;;;;;;;;;5019782;28;20106;-89
2021/12/21 03:18:56;;;;;;;9.88;6.22;;;;;;;;;;5019729;28;20046;-89
2021/12/21 03:21:22;;;;;;;9.95;6.07;;;;;;;;;;5019716;28;20024;-89
2021/12/21 03:23:47;;;;;;;11.13;6.18;;;;;;;;;;5019648;28;20437;-89
2021/12/21 03:26:12;;;;;;;8.63;6.40;;;;;;;;;;5019878;28;20068;-89
2021/12/21 03:28:37;;;;;;;12.32;7.10;;;;;;;;;;5000273;28;20331;-89
2021/12/21 03:31:03;;;;;;;11.82;6.32;;;;;;;;;;5016645;28;20030;-89
2021/12/21 03:33:28;;;;;;;12.73;6.45;;;;;;;;;;5016561;28;20022;-89
2021/12/21 03:35:53;;;;;;;9.98;5.97;;;;;;;;;;4998989;28;20037;-89
2021/12/21 03:38:18;;;;;;;11.70;6.20;;;;;;;;;;4999010;28;20021;-89
2021/12/21 03:40:44;;;;;;;9.18;5.97;;;;;;;;;;4998820;28;20797;-89
2021/12/21 03:43:10;;;;;;;16.08;6.80;;;;;;;;;;4998795;28;20057;-89
2021/12/21 03:45:40;;;;;;;10.70;6.70;;;;;;;;;;4998719;28;20014;-89
2021/12/21 03:48:06;;;;;;;7.93;6.15;;;;;;;;;;4998530;28;20105;-89
2021/12/21 03:50:31;;;;;;;11.38;6.47;;;;;;;;;;5016034;28;20117;-89
2021/12/21 03:52:56;;;;;;;12.07;6.40;;;;;;;;;;5016088;28;20080;-89
2021/12/21 03:55:21;;;;;;;12.68;7.18;;;;;;;;;;5016134;28;20018;-89
2021/12/21 03:57:47;;;;;;;10.70;5.88;;;;;;;;;;5015929;28;20425;-89
2021/12/21 04:00:14;;;;;;;11.05;6.57;;;;;;;;;;4998406;28;20148;-89
2021/12/21 04:02:39;;;;;;;10.88;6.50;;;;;;;;;;4998668;28;20485;-89
2021/12/21 04:05:05;;;;;;;11.30;6.55;;;;;;;;;;5015843;28;20072;-89
2021/12/21 04:07:30;;;;;;;7.57;5.57;;;;;;;;;;5015768;28;20100;-89
2021/12/21 04:09:55;;;;;;;9.32;5.55;;;;;;;;;;5015698;28;20037;-89
2021/12/21 04:12:21;;;;;;;13.30;5.70;;;;;;;;;;4998250;28;20384;-89
2021/12/21 04:14:46;;;;;;;9.57;5.20;;;;;;;;;;5015721;28;20053;-89
2021/12/21 04:17:17;;;;;;;11.35;6.15;;;;;;;;;;4998247;28;20120;-89
2021/12/21 04:19:43;;;;;;;10.18;5.47;;;;;;;;;;4998544;28;20381;-89
2021/12/21 04:22:08;;;;;;;10.18;6.28;;;;;;;;;;5015734;28;20022;-89
2021/12/21 04:24:33;;;;;;;9.43;5.60;;;;;;;;;;5015624;28;20033;-89
2021/12/21 04:26:58;;;;;;;8.85;5.50;;;;;;;;;;5015800;28;20026;-89
2021/12/21 04:29:23;;;;;;;9.00;6.60;;;;;;;;;;5015110;28;20052;-89
2021/12/21 04:31:49;;;;;;;11.30;6.53;;;;;;;;;;5013174;28;20356;-89
2021/12/21 04:34:14;;;;;;;10.15;5.72;;;;;;;;;;4994544;28;20616;-89
2021/12/21 04:36:40;;;;;;;12.48;5.70;;;;;;;;;;4994726;28;20034;-89
2021/12/21 04:39:16;;;;;;;12.70;7.82;;;;;;;;;;4994234;28;20025;-89
2021/12/21 04:41:43;;;;;;;14.15;6.70;;;;;;;;;;5012661;28;20053;-89
2021/12/21 04:44:09;;;;;;;12.20;8.55;;;;;;;;;;4994464;28;20021;-89
2021/12/21 04:46:34;;;;;;;9.57;6.20;;;;;;;;;;5012381;28;20018;-89
2021/12/21 04:48:59;;;;;;;9.60;6.37;;;;;;;;;;5012010;28;20081;-89
2021/12/21 04:51:24;;;;;;;10.03;6.63;;;;;;;;;;4994235;28;20265;-89
2021/12/21 04:53:49;;;;;;;11.65;6.07;;;;;;;;;;5011945;28;20269;-89
2021/12/21 04:56:15;;;;;;;15.20;8.25;;;;;;;;;;4994852;28;20025;-89
2021/12/21 04:58:40;;;;;;;10.13;6.03;;;;;;;;;;5014000;28;20872;-89
2021/12/21 05:01:05;;;;;;;9.90;6.53;;;;;;;;;;4996871;28;20449;-88
2021/12/21 05:03:30;;;;;;;12.73;8.07;;;;;;;;;;4997117;28;20050;-89
2021/12/21 05:05:56;;;;;;;12.65;6.10;;;;;;;;;;5014758;28;20018;-89
2021/12/21 05:08:29;;;;;;;14.38;7.63;;;;;;;;;;4996994;28;20010;-89
2021/12/21 05:11:01;;;;;;;13.02;7.72;;;;;;;;;;4997176;28;20393;-89
2021/12/21 05:13:30;;;;;;;17.00;8.88;;;;;;;;;;5014782;28;20021;-89
2021/12/21 05:15:55;;;;;;;11.23;7.10;;;;;;;;;;5014745;28;20033;-89
2021/12/21 05:18:21;;;;;;;12.70;6.95;;;;;;;;;;4996921;28;20029;-89
2021/12/21 05:20:46;;;;;;;13.60;7.78;;;;;;;;;;4997025;28;20018;-89
2021/12/21 05:23:11;;;;;;;17.55;8.60;;;;;;;;;;4996958;28;20022;-89
2021/12/21 05:25:37;;;;;;;18.25;10.88;;;;;;;;;;5014296;28;20029;-89
2021/12/21 05:28:04;;;;;;;17.00;8.55;;;;;;;;;;4996917;28;20029;-89
2021/12/21 05:30:29;;;;;;;15.85;9.88;;;;;;;;;;5014288;28;20030;-90
2021/12/21 05:32:55;;;;;;;21.33;10.50;;;;;;;;;;4996971;28;20493;-89
2021/12/21 05:35:22;;;;;;;14.10;8.18;;;;;;;;;;5014374;28;20022;-89
2021/12/21 05:37:48;;;;;;;11.70;8.38;;;;;;;;;;5014170;28;20014;-89
2021/12/21 05:40:16;;;;;;;14.38;7.55;;;;;;;;;;5013932;28;20018;-90
2021/12/21 05:42:45;;;;;;;11.80;7.22;;;;;;;;;;5014332;28;20484;-89
2021/12/21 05:45:12;;;;;;;10.63;7.75;;;;;;;;;;4996571;28;20022;-90
2021/12/21 05:47:37;;;;;;;14.23;7.38;;;;;;;;;;4996661;28;20108;-90
2021/12/21 05:50:08;;;;;;;12.68;6.75;;;;;;;;;;5011704;28;20120;-89
2021/12/21 05:52:33;;;;;;;13.32;8.00;;;;;;;;;;4992408;28;20018;-89
2021/12/21 05:54:59;;;;;;;15.88;9.18;;;;;;;;;;5010584;28;20100;-89
2021/12/21 05:57:24;;;;;;;12.23;7.78;;;;;;;;;;5010794;28;20088;-89
2021/12/21 05:59:50;;;;;;;13.23;8.63;;;;;;;;;;4997124;28;20045;-91
2021/12/21 06:23:19;;;;;;;15.60;6.90;;;;;;;;;;5555301;22;20121;-89
2021/12/21 06:25:57;;;;;;;9.73;6.15;;;;;;;;;;5010547;28;20022;-89
2021/12/21 06:28:22;;;;;;;14.40;6.55;;;;;;;;;;5011924;28;20025;-89
2021/12/21 06:30:48;;;;;;;11.88;6.97;;;;;;;;;;5011559;28;20374;-89
2021/12/21 06:33:14;;;;;;;13.90;6.25;;;;;;;;;;5029702;28;20041;-89
2021/12/21 06:35:39;;;;;;;11.93;6.55;;;;;;;;;;5007357;28;20053;-89
2021/12/21 06:38:04;;;;;;;12.52;7.10;;;;;;;;;;4992027;28;20026;-89
2021/12/21 06:40:30;;;;;;;11.45;7.63;;;;;;;;;;5009755;28;20475;-89
2021/12/21 06:42:55;;;;;;;14.50;7.70;;;;;;;;;;5009990;28;20018;-89
2021/12/21 06:45:29;;;;;;;11.32;7.45;;;;;;;;;;4992527;28;20022;-89
2021/12/21 06:53:23;;;;;;;11.80;7.57;;;;;;;;;;5027496;28;20080;-89
2021/12/21 06:55:48;;;;;;;11.23;8.40;;;;;;;;;;4997777;28;20030;-88
2021/12/21 06:58:13;;;;;;;11.13;7.63;;;;;;;;;;5028834;28;20032;-88
2021/12/21 07:00:38;;;;;;;14.77;7.00;;;;;;;;;;5011521;28;20264;-88
2021/12/21 07:03:04;;;;;;;11.60;7.75;;;;;;;;;;5012908;28;20017;-88
2021/12/21 07:05:29;;;;;;;11.65;6.78;;;;;;;;;;4996352;28;20030;-88
2021/12/21 07:07:55;;;;;;;12.65;7.45;;;;;;;;;;4997981;28;20112;-89
2021/12/21 07:10:21;;;;;;;11.98;7.53;;;;;;;;;;5014892;28;20033;-88
2021/12/21 07:20:23;;;;;;;13.13;8.15;;;;;;;;;;5032157;28;20052;-88
2021/12/21 07:22:49;;;;;;;17.53;8.50;;;;;;;;;;5032852;28;20084;-88
2021/12/21 07:25:14;;;;;;;13.70;8.35;;;;;;;;;;5015183;28;20264;-88
2021/12/21 07:27:39;;;;;;;11.38;7.97;;;;;;;;;;5001351;28;20021;-88
2021/12/21 07:30:05;;;;;;;16.00;8.85;;;;;;;;;;5009100;28;20061;-88
2021/12/21 07:32:30;;;;;;;12.73;7.90;;;;;;;;;;5009062;28;20104;-88
2021/12/21 07:34:55;;;;;;;14.32;8.10;;;;;;;;;;5001969;28;20097;-88
2021/12/21 07:37:20;;;;;;;11.63;8.20;;;;;;;;;;5033223;28;20100;-89
2021/12/21 07:39:46;;;;;;;13.77;7.50;;;;;;;;;;5028986;28;20327;-88
2021/12/21 07:42:11;;;;;;;14.50;8.63;;;;;;;;;;5005392;28;20565;-88
2021/12/21 07:44:36;;;;;;;13.77;9.00;;;;;;;;;;5034094;28;20257;-89
2021/12/21 07:47:01;;;;;;;19.65;10.00;;;;;;;;;;5016560;28;20772;-88
2021/12/21 07:49:27;;;;;;;19.55;11.82;;;;;;;;;;5031198;28;20397;-89
2021/12/21 07:51:52;;;;;;;26.40;15.10;;;;;;;;;;4996897;28;20386;-88
2021/12/21 07:54:21;;;;;;;28.10;15.85;;;;;;;;;;5034552;28;20009;-88
2021/12/21 07:56:46;;;;;;;20.02;11.45;;;;;;;;;;5038968;28;20017;-88
2021/12/21 07:59:11;;;;;;;16.17;9.63;;;;;;;;;;4996900;28;20105;-88
2021/12/21 08:01:37;;;;;;;26.38;12.70;;;;;;;;;;4994272;28;20275;-88
2021/12/21 08:04:03;;;;;;;20.63;10.45;;;;;;;;;;5002455;28;20025;-88
2021/12/21 08:06:31;;;;;;;28.75;13.90;;;;;;;;;;5032876;28;20025;-88
2021/12/21 08:08:56;;;;;;;18.00;11.05;;;;;;;;;;5019432;28;20109;-89
2021/12/21 08:13:56;;;;;;;23.73;13.32;;;;;;;;;;5034527;28;20025;-89
2021/12/21 08:16:22;;;;;;;34.30;19.23;;;;;;;;;;5034502;28;20020;-89
2021/12/21 08:18:47;;;;;;;22.35;12.73;;;;;;;;;;5016320;28;20014;-89
2021/12/21 08:21:16;;;;;;;18.63;10.13;;;;;;;;;;5017144;28;20014;-89
2021/12/21 08:23:41;;;;;;;14.15;8.63;;;;;;;;;;5000898;28;20699;-88
2021/12/21 08:26:06;;;;;;;14.05;8.43;;;;;;;;;;5024119;28;20034;-88
2021/12/21 08:28:32;;;;;;;19.10;7.30;;;;;;;;;;4994757;28;20088;-88
2021/12/21 08:30:57;;;;;;;11.32;7.30;;;;;;;;;;5011997;28;20018;-88
2021/12/21 08:33:22;;;;;;;15.27;7.15;;;;;;;;;;5031138;28;20032;-88
2021/12/21 08:35:48;;;;;;;12.57;7.00;;;;;;;;;;5025211;28;20025;-88
2021/12/21 08:38:16;;;;;;;12.48;7.25;;;;;;;;;;5012351;28;20045;-89
2021/12/21 08:40:43;;;;;;;13.20;7.63;;;;;;;;;;5012520;28;20011;-89
2021/12/21 08:43:13;;;;;;;6.78;5.03;;;;;;;;;;5030519;28;20018;-89
2021/12/21 08:45:39;;;;;;;11.05;5.60;;;;;;;;;;5011445;28;20018;-88
2021/12/21 08:48:05;;;;;;;11.60;6.13;;;;;;;;;;5014178;28;20022;-89
2021/12/21 08:50:31;;;;;;;21.13;6.05;;;;;;;;;;5025152;28;20030;-89
2021/12/21 08:52:57;;;;;;;8.40;4.25;;;;;;;;;;5015222;28;20029;-88
2021/12/21 08:55:22;;;;;;;10.50;5.20;;;;;;;;;;4996189;28;20018;-88
2021/12/21 08:57:47;;;;;;;12.40;5.07;;;;;;;;;;5012765;28;20068;-88
2021/12/21 09:00:16;;;;;;;10.27;5.60;;;;;;;;;;5011726;28;20037;-89
2021/12/21 09:02:41;;;;;;;11.55;4.07;;;;;;;;;;5026241;28;20101;-88
2021/12/21 09:05:11;;;;;;;8.40;4.72;;;;;;;;;;4998189;28;20612;-88
2021/12/21 09:07:41;;;;;;;10.65;5.45;;;;;;;;;;5015948;28;20056;-89
2021/12/21 09:10:07;;;;;;;7.18;4.43;;;;;;;;;;5022827;28;20038;-88
2021/12/21 09:12:32;;;;;;;9.82;4.90;;;;;;;;;;5009926;28;20504;-86
2021/12/21 09:14:57;;;;;;;10.82;6.00;;;;;;;;;;5008033;28;20026;-85
2021/12/21 10:04:44;;;;;;;16.02;7.00;;;;;;;;;;5996157;22;20015;-89
2021/12/21 10:07:09;;;;;;;16.55;6.75;;;;;;;;;;5032023;28;20491;-89
2021/12/21 10:09:36;;;;;;;11.55;5.60;;;;;;;;;;5016536;28;20029;-89
2021/12/21 10:12:01;;;;;;;8.90;5.60;;;;;;;;;;5012514;28;20725;-89
2021/12/21 10:14:26;;;;;;;17.42;7.00;;;;;;;;;;5012262;28;20056;-89
2021/12/21 10:17:05;;;;;;;16.35;6.30;;;;;;;;;;5012520;28;20378;-89
2021/12/21 10:19:31;;;;;;;17.15;6.72;;;;;;;;;;5029919;28;20056;-89
2021/12/21 10:21:56;;;;;;;16.35;5.97;;;;;;;;;;5030460;28;20049;-89
2021/12/21 10:24:25;;;;;;;13.10;6.68;;;;;;;;;;5013016;28;20784;-88
2021/12/21 10:27:04;;;;;;;12.20;6.03;;;;;;;;;;5013124;28;20056;-88
2021/12/21 10:29:39;;;;;;;12.50;6.35;;;;;;;;;;5030175;28;20116;-88
2021/12/21 10:32:04;;;;;;;12.13;7.57;;;;;;;;;;4994037;28;20022;-88
2021/12/21 10:34:30;;;;;;;16.13;6.22;;;;;;;;;;4992579;28;20121;-88
2021/12/21 10:36:57;;;;;;;14.65;5.82;;;;;;;;;;5033672;28;20802;-88
2021/12/21 10:39:24;;;;;;;11.18;5.70;;;;;;;;;;5032941;28;20035;-88
2021/12/21 10:41:51;;;;;;;9.65;5.95;;;;;;;;;;5015861;28;20021;-88
2021/12/21 10:44:18;;;;;;;16.20;6.28;;;;;;;;;;5015541;28;20075;-88
2021/12/21 10:46:51;;;;;;;11.30;7.38;;;;;;;;;;5033349;28;20029;-88
2021/12/21 10:49:17;;;;;;;12.02;6.63;;;;;;;;;;5033956;28;20802;-88
2021/12/21 10:52:04;;;;;;;12.70;6.40;;;;;;;;;;5017420;28;20029;-88
2021/12/21 10:54:33;;;;;;;9.77;5.53;;;;;;;;;;5016109;28;20038;-88
2021/12/21 10:56:59;;;;;;;8.52;5.03;;;;;;;;;;5015824;28;20075;-88
2021/12/21 10:59:35;;;;;;;11.85;5.40;;;;;;;;;;5033566;28;20091;-88
2021/12/21 11:02:07;;;;;;;8.18;5.03;;;;;;;;;;5028101;28;20079;-88
2021/12/21 11:04:36;;;;;;;7.22;4.68;;;;;;;;;;5035627;28;20804;-89
2021/12/21 11:07:19;;;;;;;11.55;4.90;;;;;;;;;;5053095;28;20028;-85
2021/12/21 11:10:10;;;;;;;11.35;5.68;;;;;;;;;;5029261;28;20048;-88
2021/12/21 11:12:41;;;;;;;11.38;5.40;;;;;;;;;;5015308;28;20025;-88
2021/12/21 11:15:08;;;;;;;10.93;5.88;;;;;;;;;;5015327;28;20049;-87
2021/12/21 11:17:34;;;;;;;12.05;6.65;;;;;;;;;;5015182;28;20025;-88
2021/12/21 11:19:59;;;;;;;4.82;4.30;;;;;;;;;;5014893;28;20048;-87
2021/12/21 11:22:26;;;;;;;13.23;4.72;;;;;;;;;;5014965;28;20025;-88
2021/12/21 11:24:52;;;;;;;10.38;4.80;;;;;;;;;;5032682;28;20014;-88
2021/12/21 11:27:18;;;;;;;11.50;5.07;;;;;;;;;;5014697;28;20071;-88
2021/12/21 11:29:44;;;;;;;12.00;4.97;;;;;;;;;;5032401;28;20077;-88
2021/12/21 11:32:09;;;;;;;6.93;4.97;;;;;;;;;;5032698;28;20053;-88
2021/12/21 11:34:47;;;;;;;7.65;4.47;;;;;;;;;;5014423;28;20021;-88
2021/12/21 11:37:21;;;;;;;15.07;6.13;;;;;;;;;;5014889;28;20024;-88
2021/12/21 11:39:47;;;;;;;10.20;4.03;;;;;;;;;;5032843;28;20132;-88
2021/12/21 11:42:33;;;;;;;16.38;4.65;;;;;;;;;;5033006;28;20155;-88
2021/12/21 11:45:09;;;;;;;10.75;4.75;;;;;;;;;;5015114;28;20783;-88
2021/12/21 11:47:44;;;;;;;8.98;4.13;;;;;;;;;;4999370;28;20833;-88
2021/12/21 11:50:10;;;;;;;10.45;4.85;;;;;;;;;;5016684;28;20029;-88
2021/12/21 11:53:04;;;;;;;8.00;4.03;;;;;;;;;;5017748;28;20512;-88
2021/12/21 11:55:31;;;;;;;11.25;4.18;;;;;;;;;;5004139;28;20037;-87
2021/12/21 11:57:58;;;;;;;8.25;4.28;;;;;;;;;;5033717;28;20384;-87
2021/12/21 12:00:23;;;;;;;15.95;5.30;;;;;;;;;;5014173;28;20473;-88
2021/12/21 12:02:50;;;;;;;15.40;5.15;;;;;;;;;;5031589;28;20024;-87
2021/12/21 12:05:15;;;;;;;11.88;4.65;;;;;;;;;;5014389;28;20054;-88
2021/12/21 12:07:40;;;;;;;9.77;4.05;;;;;;;;;;5015998;28;20075;-87
2021/12/21 12:10:08;;;;;;;9.23;4.35;;;;;;;;;;5016299;28;20029;-88
2021/12/21 12:12:33;;;;;;;11.85;4.75;;;;;;;;;;5016260;28;20021;-87
2021/12/21 12:14:59;;;;;;;10.32;4.47;;;;;;;;;;5032539;28;20021;-87
2021/12/21 12:17:26;;;;;;;6.22;3.42;;;;;;;;;;5013930;28;20025;-87
2021/12/21 12:19:53;;;;;;;8.73;4.03;;;;;;;;;;5031477;28;20033;-87
2021/12/21 12:22:24;;;;;;;11.60;4.30;;;;;;;;;;5013666;28;20071;-88
2021/12/21 12:24:56;;;;;;;8.48;4.68;;;;;;;;;;5013524;28;20825;-87
2021/12/21 12:27:23;;;;;;;6.47;3.90;;;;;;;;;;5013793;28;20013;-88
2021/12/21 12:29:53;;;;;;;6.10;3.42;;;;;;;;;;5014003;28;20072;-88
2021/12/21 12:32:32;;;;;;;8.10;3.85;;;;;;;;;;5032342;28;20040;-89
2021/12/21 12:35:02;;;;;;;11.57;4.47;;;;;;;;;;5031318;28;20063;-88
2021/12/21 12:37:28;;;;;;;6.88;4.10;;;;;;;;;;5031876;28;20453;-88
2021/12/21 12:39:55;;;;;;;6.97;4.13;;;;;;;;;;5031279;28;20021;-88
2021/12/21 12:42:20;;;;;;;7.93;3.67;;;;;;;;;;5013253;28;20017;-88
2021/12/21 12:44:46;;;;;;;8.85;3.58;;;;;;;;;;5012619;28;20067;-88
2021/12/21 12:47:13;;;;;;;8.23;3.60;;;;;;;;;;5030394;28;20140;-88
2021/12/21 12:49:48;;;;;;;9.40;3.47;;;;;;;;;;5030294;28;20044;-88
2021/12/21 12:52:15;;;;;;;10.18;4.07;;;;;;;;;;5013315;28;20021;-88
2021/12/21 12:54:45;;;;;;;9.40;3.50;;;;;;;;;;5031326;28;20018;-88
2021/12/21 12:57:11;;;;;;;6.78;3.97;;;;;;;;;;5031025;28;20053;-88
2021/12/21 12:59:37;;;;;;;7.82;3.40;;;;;;;;;;5013239;28;20025;-88
2021/12/21 13:02:06;;;;;;;8.40;3.40;;;;;;;;;;5030565;28;20104;-88
2021/12/21 13:04:33;;;;;;;11.73;3.42;;;;;;;;;;5030058;28;20029;-88
2021/12/21 13:06:58;;;;;;;7.80;3.65;;;;;;;;;;5012576;28;20033;-88
2021/12/21 13:09:23;;;;;;;6.47;3.75;;;;;;;;;;5030071;28;20041;-88
2021/12/21 13:11:48;;;;;;;12.18;4.00;;;;;;;;;;5012638;28;20023;-88
2021/12/21 13:14:15;;;;;;;10.73;4.25;;;;;;;;;;5013184;28;20140;-88
2021/12/21 13:16:40;;;;;;;10.88;4.45;;;;;;;;;;5012569;28;20079;-88
2021/12/21 13:19:07;;;;;;;8.15;3.55;;;;;;;;;;5012349;28;20029;-88
2021/12/21 13:21:35;;;;;;;10.63;5.20;;;;;;;;;;5010548;28;20021;-88
2021/12/21 13:24:05;;;;;;;7.57;3.92;;;;;;;;;;4992660;28;20080;-88
2021/12/21 13:26:32;;;;;;;7.47;4.20;;;;;;;;;;4992983;28;20101;-88
2021/12/21 13:28:59;;;;;;;6.07;4.03;;;;;;;;;;4992626;28;20034;-88
2021/12/21 13:31:24;;;;;;;9.75;5.45;;;;;;;;;;5013554;28;20025;-88
2021/12/21 13:33:55;;;;;;;10.68;4.28;;;;;;;;;;5013470;28;20025;-88
2021/12/21 13:36:30;;;;;;;11.65;4.28;;;;;;;;;;5013875;28;20025;-87
2021/12/21 13:38:56;;;;;;;8.85;4.43;;;;;;;;;;5012583;28;20091;-88
2021/12/21 13:41:22;;;;;;;12.18;5.00;;;;;;;;;;5029656;28;20517;-88
2021/12/21 13:43:52;;;;;;;12.10;4.43;;;;;;;;;;5011883;28;20053;-88
2021/12/21 13:46:17;;;;;;;8.75;4.70;;;;;;;;;;5029918;28;20100;-88
2021/12/21 13:48:49;;;;;;;10.05;5.55;;;;;;;;;;5012419;28;20108;-88
2021/12/21 13:51:16;;;;;;;9.80;4.70;;;;;;;;;;5030166;28;20025;-88
2021/12/21 13:53:54;;;;;;;10.80;4.65;;;;;;;;;;5011887;28;20021;-88
2021/12/21 13:56:24;;;;;;;12.10;5.63;;;;;;;;;;5011594;28;20026;-87
2021/12/21 13:58:54;;;;;;;9.10;4.82;;;;;;;;;;5029314;28;20087;-87
2021/12/21 14:01:20;;;;;;;9.55;4.70;;;;;;;;;;5011321;28;20037;-88
2021/12/21 14:03:52;;;;;;;15.77;6.43;;;;;;;;;;5011515;28;20024;-88
2021/12/21 14:06:21;;;;;;;12.13;5.55;;;;;;;;;;5011572;28;20049;-88
2021/12/21 14:08:49;;;;;;;9.55;4.97;;;;;;;;;;5029173;28;20040;-88
2021/12/21 14:11:14;;;;;;;8.57;4.93;;;;;;;;;;5029327;28;20014;-87
2021/12/21 14:13:42;;;;;;;10.07;4.28;;;;;;;;;;5028864;28;20768;-88
2021/12/21 14:16:17;;;;;;;8.93;5.00;;;;;;;;;;5011331;28;20831;-88
2021/12/21 14:18:45;;;;;;;13.27;5.75;;;;;;;;;;5011077;28;20108;-87
2021/12/21 14:21:11;;;;;;;8.00;4.80;;;;;;;;;;5029035;28;20511;-87
2021/12/21 14:23:38;;;;;;;12.38;4.47;;;;;;;;;;5011409;28;20037;-87
2021/12/21 14:26:12;;;;;;;9.88;4.78;;;;;;;;;;5012583;28;20028;-88
2021/12/21 14:28:46;;;;;;;10.68;4.35;;;;;;;;;;5010120;28;20614;-86
2021/12/21 14:31:13;;;;;;;7.78;4.30;;;;;;;;;;5009077;28;20025;-91
2021/12/21 15:02:54;;;;;;;8.55;4.60;;;;;;;;;;5533357;22;20011;-91
2021/12/21 15:13:08;;;;;;;12.80;4.82;;;;;;;;;;2691494;22;20297;-91
2021/12/21 15:15:39;;;;;;;9.95;4.78;;;;;;;;;;5025581;28;20082;-87
2021/12/21 15:18:07;;;;;;;9.82;4.95;;;;;;;;;;5044457;28;20092;-87
2021/12/21 15:20:32;;;;;;;8.00;4.50;;;;;;;;;;5028429;28;20381;-88
2021/12/21 15:22:58;;;;;;;12.50;4.88;;;;;;;;;;5027984;28;20083;-87
2021/12/21 15:25:24;;;;;;;11.63;5.25;;;;;;;;;;5031392;28;20018;-87
2021/12/21 15:27:49;;;;;;;9.77;4.90;;;;;;;;;;5031710;28;20021;-87
2021/12/21 15:30:16;;;;;;;12.32;5.80;;;;;;;;;;5032215;28;20033;-87
2021/12/21 15:32:42;;;;;;;10.35;5.45;;;;;;;;;;5014391;28;20025;-88
2021/12/21 15:35:08;;;;;;;17.10;4.93;;;;;;;;;;5031660;28;20021;-87
2021/12/21 15:37:33;;;;;;;12.52;5.30;;;;;;;;;;5031969;28;20021;-87
2021/12/21 15:39:59;;;;;;;11.75;5.85;;;;;;;;;;5014219;28;20030;-87
2021/12/21 15:42:25;;;;;;;11.80;6.00;;;;;;;;;;5032800;28;20730;-88
2021/12/21 15:44:54;;;;;;;13.15;5.75;;;;;;;;;;5032334;28;20485;-87
2021/12/21 15:47:19;;;;;;;13.40;5.72;;;;;;;;;;5032511;28;20064;-87
2021/12/21 15:49:45;;;;;;;17.57;6.80;;;;;;;;;;5014403;28;20083;-87
2021/12/21 15:52:11;;;;;;;10.95;5.18;;;;;;;;;;5032631;28;20916;-88
2021/12/21 15:54:37;;;;;;;9.88;4.82;;;;;;;;;;5033044;28;20032;-87
2021/12/21 15:57:03;;;;;;;12.23;4.82;;;;;;;;;;5015836;28;20021;-87
2021/12/21 15:59:28;;;;;;;10.35;5.35;;;;;;;;;;5031985;28;20075;-87
2021/12/21 16:01:53;;;;;;;13.77;5.90;;;;;;;;;;5032809;28;20037;-88
2021/12/21 16:04:19;;;;;;;14.30;7.27;;;;;;;;;;5014984;28;20277;-87
2021/12/21 16:06:48;;;;;;;11.50;6.10;;;;;;;;;;5015683;28;20256;-87
2021/12/21 16:09:13;;;;;;;16.67;7.45;;;;;;;;;;5032676;28;20033;-88
2021/12/21 16:11:39;;;;;;;13.05;6.32;;;;;;;;;;5014290;28;20029;-87
2021/12/21 16:14:04;;;;;;;20.48;6.57;;;;;;;;;;5033109;28;20056;-87
2021/12/21 16:16:30;;;;;;;12.80;6.13;;;;;;;;;;5013458;28;20041;-87
2021/12/21 16:18:55;;;;;;;13.75;5.97;;;;;;;;;;5032498;28;20020;-87
2021/12/21 16:21:20;;;;;;;17.67;5.55;;;;;;;;;;5015108;28;20504;-87
2021/12/21 16:23:45;;;;;;;10.35;4.88;;;;;;;;;;5014904;28;20048;-87
2021/12/21 16:26:10;;;;;;;11.90;5.10;;;;;;;;;;5014790;28;20037;-88
2021/12/21 16:28:36;;;;;;;11.57;5.70;;;;;;;;;;5032353;28;20764;-87
2021/12/21 16:31:01;;;;;;;15.55;4.25;;;;;;;;;;5014327;28;20341;-87
2021/12/21 16:33:26;;;;;;;14.87;5.13;;;;;;;;;;5014196;28;20072;-88
2021/12/21 16:35:52;;;;;;;10.20;4.97;;;;;;;;;;5014322;28;20624;-88
2021/12/21 16:38:17;;;;;;;12.82;4.82;;;;;;;;;;5014419;28;20017;-87
2021/12/21 16:40:44;;;;;;;12.85;4.78;;;;;;;;;;5013417;28;20132;-87
2021/12/21 16:43:10;;;;;;;11.05;4.88;;;;;;;;;;5030607;28;20033;-88
2021/12/21 16:45:35;;;;;;;14.90;5.18;;;;;;;;;;5013335;28;20029;-88
2021/12/21 16:48:01;;;;;;;12.50;5.57;;;;;;;;;;5032015;28;20030;-88
2021/12/21 16:50:27;;;;;;;11.75;4.72;;;;;;;;;;5013025;28;20029;-88
2021/12/21 16:52:52;;;;;;;13.70;5.00;;;;;;;;;;5014193;28;20485;-87
2021/12/21 16:55:18;;;;;;;11.00;5.30;;;;;;;;;;5032476;28;20032;-87
2021/12/21 16:57:43;;;;;;;18.00;4.88;;;;;;;;;;5033161;28;20260;-88
2021/12/21 17:00:09;;;;;;;12.47;5.37;;;;;;;;;;5016106;28;20433;-88
2021/12/21 17:02:34;;;;;;;18.20;5.38;;;;;;;;;;5034040;28;20284;-89
2021/12/21 17:04:59;;;;;;;13.32;5.03;;;;;;;;;;5016314;28;20029;-88
2021/12/21 17:07:24;;;;;;;10.00;5.05;;;;;;;;;;5033481;28;20700;-88
2021/12/21 17:09:52;;;;;;;12.95;5.70;;;;;;;;;;5032790;28;20037;-88